aviador You're here:

SKBQ Decoded Metar

BARRANQUILLA in COLOMBIA
Report Time2017-11-24 20:00:00
UTC Time2017-11-24 20:15:03
Flight Rules vfr VFR
Wind010° at 10 kt
W.Decomp.*RWY 05: 8.4 kt HW 5.4 kt LCW
W.Rank010° ranks 1
Current wind is above 010° avg. (7.6)
Visibility9999 m
Phenomena:N/A
Clouds:Few CB 015 Hf
Broken 200 Hf
Expected CloudBase > 2,000 ft AGL from Temp-Dew spread
Ceiling20,000 ft
Temp29°C (ISA +14)
Dew Point24°C (74% RH)
Heat Index33.5°C
QNH1008 hPa
Density Alt2,208 ft
Elevation33 ft
Report Wrong Elevation
Raw Report
METAR SKBQ 242000Z 01010KT 9999 FEW015CB BKN200 29/24 A2977 RMK CB/W=

Extra information for SKBQ:More info

Metar Taf Metar & Taf Last 4 Metars F.Rules Stats Wind Profile Meteogram Temp Stats Airport Information Weather charts Add Link Nearby VenuesMetar ALERT Operation Metar Decoded Social comments